createdAt,value
2023-02-07T00:02:37.244Z,13.13
2023-02-07T00:05:24.368Z,15.38
2023-02-07T00:07:56.039Z,17.10
2023-02-07T00:13:17.564Z,19.10
2023-02-07T00:16:00.122Z,14.27
2023-02-07T00:18:51.981Z,23.27
2023-02-07T00:22:17.913Z,20.33
2023-02-07T00:24:48.297Z,14.80
2023-02-07T00:27:52.553Z,14.38
2023-02-07T00:31:21.747Z,20.63
2023-02-07T00:34:07.542Z,14.05
2023-02-07T00:36:56.557Z,16.15
2023-02-07T00:39:38.573Z,20.17
2023-02-07T00:42:32.246Z,21.08
2023-02-07T00:45:08.254Z,15.85
2023-02-07T00:47:56.646Z,12.60
2023-02-07T00:50:26.029Z,16.27
2023-02-07T00:53:01.538Z,16.73
2023-02-07T00:56:10.608Z,26.07
2023-02-07T01:05:58.980Z,13.38
2023-02-07T01:11:19.149Z,23.70
2023-02-07T01:14:15.696Z,22.17
2023-02-07T01:17:03.723Z,15.23
2023-02-07T01:19:31.574Z,21.13
2023-02-07T01:22:09.171Z,21.50
2023-02-07T01:24:45.393Z,14.77
2023-02-07T01:27:39.620Z,20.30
2023-02-07T01:33:05.317Z,17.15
2023-02-07T01:39:37.656Z,18.33
2023-02-07T01:42:19.728Z,19.42
2023-02-07T01:44:52.543Z,15.77
2023-02-07T01:53:28.399Z,21.15
2023-02-07T01:56:31.318Z,21.33
2023-02-07T01:59:22.776Z,23.50
2023-02-07T02:01:56.961Z,20.60
2023-02-07T02:05:06.428Z,19.50
2023-02-07T02:07:37.394Z,22.05
2023-02-07T02:10:13.459Z,22.70
2023-02-07T02:12:54.274Z,21.02
2023-02-07T02:16:15.724Z,20.48
2023-02-07T02:19:21.136Z,22.67
2023-02-07T02:22:48.260Z,17.80
2023-02-07T02:26:13.620Z,27.13
2023-02-07T02:28:52.028Z,24.40
2023-02-07T02:31:56.942Z,27.67
2023-02-07T02:34:50.680Z,21.23
2023-02-07T02:38:06.654Z,29.08
2023-02-07T02:41:00.195Z,34.42
2023-02-07T02:43:53.691Z,18.17
2023-02-07T02:46:43.183Z,21.63
2023-02-07T02:49:18.000Z,20.52
2023-02-07T02:51:55.483Z,20.83
2023-02-07T02:58:46.714Z,27.02
2023-02-07T03:02:01.740Z,25.77
2023-02-07T03:08:38.541Z,21.48
2023-02-07T03:11:14.947Z,22.45
2023-02-07T03:14:18.246Z,14.82
2023-02-07T03:17:44.699Z,13.77
2023-02-07T03:20:38.774Z,16.27
2023-02-07T03:26:01.802Z,11.77
2023-02-07T03:28:31.608Z,20.92
2023-02-07T03:33:54.712Z,29.67
2023-02-07T03:37:32.441Z,29.38
2023-02-07T03:40:48.945Z,21.77
2023-02-07T03:43:43.588Z,20.75
2023-02-07T03:49:17.872Z,22.63
2023-02-07T03:51:54.494Z,20.70
2023-02-07T04:02:41.465Z,19.27
2023-02-07T04:05:11.661Z,19.58
2023-02-07T04:07:38.812Z,16.95
2023-02-07T04:10:25.666Z,17.40
2023-02-07T04:13:06.527Z,20.17
2023-02-07T04:15:36.902Z,20.20
2023-02-07T04:18:07.533Z,16.38
2023-02-07T04:20:34.476Z,20.55
2023-02-07T04:23:01.306Z,21.02
2023-02-07T04:25:28.294Z,24.20
2023-02-07T04:27:55.264Z,28.70
2023-02-07T04:30:22.443Z,30.67
2023-02-07T04:32:49.286Z,22.17
2023-02-07T04:35:36.896Z,27.85
2023-02-07T04:38:28.323Z,22.90
2023-02-07T04:41:05.732Z,22.65
2023-02-07T04:43:35.258Z,22.67
2023-02-07T04:46:03.825Z,20.00
2023-02-07T04:48:31.178Z,23.23
2023-02-07T04:50:58.168Z,21.15
2023-02-07T04:53:25.210Z,20.48
2023-02-07T04:56:12.684Z,18.40
2023-02-07T04:59:15.746Z,15.55
2023-02-07T05:01:56.400Z,17.95
2023-02-07T05:04:23.292Z,25.30
2023-02-07T05:07:23.724Z,25.92
2023-02-07T05:10:08.800Z,20.42
2023-02-07T05:12:38.660Z,20.88
2023-02-07T05:15:08.020Z,19.20
2023-02-07T05:17:38.904Z,18.50
2023-02-07T05:20:14.077Z,21.50
2023-02-07T05:22:41.580Z,26.80
2023-02-07T05:25:10.403Z,18.77
2023-02-07T05:27:37.683Z,25.42
2023-02-07T05:30:09.000Z,20.20
2023-02-07T05:32:54.580Z,19.20
2023-02-07T05:35:41.712Z,22.60
2023-02-07T05:38:24.036Z,18.60
2023-02-07T05:40:50.990Z,22.55
2023-02-07T05:43:18.088Z,23.70
2023-02-07T05:45:45.921Z,23.45
2023-02-07T05:48:13.525Z,17.42
2023-02-07T05:50:40.418Z,17.33
2023-02-07T05:53:10.457Z,21.38
2023-02-07T05:55:57.727Z,22.13
2023-02-07T05:58:38.326Z,29.52
2023-02-07T06:01:25.685Z,30.30
2023-02-07T06:04:26.804Z,24.02
2023-02-07T06:07:11.263Z,46.60
2023-02-07T06:09:38.279Z,24.00
2023-02-07T06:12:11.550Z,20.90
2023-02-07T06:14:38.558Z,28.05
2023-02-07T06:17:05.522Z,33.90
2023-02-07T06:19:32.527Z,24.42
2023-02-07T06:22:00.205Z,17.08
2023-02-07T06:24:27.996Z,26.27
2023-02-07T06:26:54.975Z,16.70
2023-02-07T06:29:21.891Z,16.85
2023-02-07T06:31:48.830Z,25.10
2023-02-07T06:34:15.930Z,60.25
2023-02-07T06:37:09.351Z,25.83
2023-02-07T06:39:49.582Z,23.90
2023-02-07T06:42:19.442Z,18.90
2023-02-07T06:44:46.543Z,17.65
2023-02-07T06:47:13.835Z,19.67
2023-02-07T06:49:41.064Z,17.80
2023-02-07T06:52:27.739Z,25.85
2023-02-07T06:55:28.723Z,21.38
2023-02-07T06:58:29.747Z,17.30
2023-02-07T07:01:19.972Z,14.02
2023-02-07T07:03:47.275Z,21.95
2023-02-07T07:06:14.362Z,20.65
2023-02-07T07:08:41.329Z,21.80
2023-02-07T07:11:11.507Z,16.80
2023-02-07T07:13:38.676Z,19.88
2023-02-07T07:16:10.956Z,26.20
2023-02-07T07:18:38.649Z,22.02
2023-02-07T07:21:12.756Z,25.00
2023-02-07T07:23:39.909Z,47.28
2023-02-07T07:26:13.173Z,55.40
2023-02-07T07:28:40.051Z,31.10
2023-02-07T07:31:11.996Z,43.97
2023-02-07T07:33:39.229Z,31.85
2023-02-07T07:36:08.808Z,44.83
2023-02-07T07:41:11.967Z,35.83
2023-02-07T07:43:39.008Z,19.92
2023-02-07T07:46:10.498Z,20.40
2023-02-07T07:48:57.780Z,22.15
2023-02-07T07:51:58.857Z,24.75
2023-02-07T07:54:46.384Z,17.58
2023-02-07T07:57:34.768Z,18.17
2023-02-07T08:00:15.768Z,21.40
2023-02-07T08:02:43.527Z,19.15
2023-02-07T08:05:13.987Z,27.27
2023-02-07T08:07:41.056Z,16.65
2023-02-07T08:10:14.317Z,19.35
2023-02-07T08:12:43.290Z,16.92
2023-02-07T08:15:11.088Z,28.70
2023-02-07T08:17:37.909Z,16.42
2023-02-07T08:20:05.657Z,23.52
2023-02-07T08:22:40.441Z,16.08
2023-02-07T08:25:10.867Z,12.90
2023-02-07T08:27:39.110Z,18.40
2023-02-07T08:30:08.694Z,21.77
2023-02-07T08:32:37.442Z,16.08
2023-02-07T08:35:24.814Z,15.18
2023-02-07T08:38:25.762Z,14.32
2023-02-07T08:41:14.309Z,47.78
2023-02-07T08:43:41.917Z,22.25
2023-02-07T08:46:14.692Z,17.50
2023-02-07T08:49:01.881Z,20.75
2023-02-07T08:52:04.946Z,13.48
2023-02-07T08:54:45.315Z,14.18
2023-02-07T08:57:32.805Z,14.60
2023-02-07T09:00:14.210Z,23.58
2023-02-07T09:02:42.539Z,17.63
2023-02-07T09:05:13.133Z,53.97
2023-02-07T09:07:40.024Z,28.23
2023-02-07T09:10:11.034Z,15.73
2023-02-07T09:12:38.348Z,14.45
2023-02-07T09:15:10.925Z,13.48
2023-02-07T09:17:37.992Z,13.10
2023-02-07T09:20:10.268Z,13.10
2023-02-07T09:22:57.568Z,12.80
2023-02-07T09:25:25.009Z,35.25
2023-02-07T09:27:52.006Z,27.75
2023-02-07T09:30:18.974Z,36.97
2023-02-07T09:33:05.814Z,13.57
2023-02-07T09:36:09.213Z,10.98
2023-02-07T09:38:49.445Z,20.00
2023-02-07T09:41:41.429Z,12.93
2023-02-07T09:44:18.977Z,17.10
2023-02-07T09:47:00.863Z,10.40
2023-02-07T09:49:47.933Z,12.02
2023-02-07T09:52:35.911Z,12.07
2023-02-07T09:55:28.872Z,12.88
2023-02-07T09:58:55.849Z,14.93
2023-02-07T10:01:56.652Z,14.80
2023-02-07T10:04:41.705Z,22.40
2023-02-07T10:07:13.359Z,17.65
2023-02-07T10:09:48.163Z,13.50
2023-02-07T10:12:41.621Z,15.85
2023-02-07T10:15:10.939Z,26.10
2023-02-07T10:18:07.476Z,27.88
2023-02-07T10:20:59.336Z,22.17
2023-02-07T10:24:15.013Z,15.52
2023-02-07T10:26:53.776Z,13.43
2023-02-07T10:29:50.236Z,16.17
2023-02-07T10:32:32.083Z,14.73
2023-02-07T10:35:34.089Z,18.13
2023-02-07T10:38:56.745Z,20.33
2023-02-07T10:41:44.826Z,26.95
2023-02-07T10:44:16.864Z,15.38
2023-02-07T10:46:48.055Z,14.77
2023-02-07T10:49:44.970Z,14.45
2023-02-07T10:52:54.052Z,14.45
2023-02-07T10:55:55.978Z,13.77
2023-02-07T10:58:42.835Z,14.73
2023-02-07T11:01:22.444Z,12.13
2023-02-07T11:03:55.018Z,20.83
2023-02-07T11:57:09.893Z,8.68
2023-02-07T12:00:47.352Z,11.75
2023-02-07T12:03:25.871Z,7.75
2023-02-07T12:06:12.406Z,14.52
2023-02-07T12:09:30.046Z,16.90
2023-02-07T12:12:56.055Z,10.52
2023-02-07T12:15:40.074Z,11.40
2023-02-07T12:18:53.217Z,20.65
2023-02-07T12:22:20.762Z,18.92
2023-02-07T12:25:52.272Z,13.75
2023-02-07T12:46:46.556Z,15.45
2023-02-07T12:49:36.999Z,9.98
2023-02-07T12:56:21.105Z,16.95
2023-02-07T12:59:05.008Z,12.73
2023-02-07T13:01:51.770Z,24.40
2023-02-07T13:04:36.178Z,13.05
2023-02-07T13:10:05.330Z,11.07
2023-02-07T13:12:50.304Z,14.30
2023-02-07T13:24:01.926Z,13.18
2023-02-07T13:27:16.499Z,10.55
2023-02-07T13:44:38.308Z,18.73
2023-02-07T14:01:59.900Z,7.03
2023-02-07T14:04:47.266Z,10.20
2023-02-07T14:07:34.481Z,9.88
2023-02-07T14:10:10.138Z,20.90
2023-02-07T14:12:41.072Z,17.30
2023-02-07T14:15:34.899Z,10.35
2023-02-07T14:18:51.006Z,12.45
2023-02-07T14:21:40.023Z,30.52
2023-02-07T14:24:26.048Z,11.57
2023-02-07T14:26:59.759Z,18.55
2023-02-07T14:29:30.586Z,9.70
2023-02-07T14:32:21.608Z,8.88
2023-02-07T14:35:30.044Z,15.40
2023-02-07T14:38:53.007Z,24.73
2023-02-07T14:41:37.533Z,13.55
2023-02-07T14:44:09.866Z,14.95
2023-02-07T14:46:47.345Z,10.65
2023-02-07T14:49:44.074Z,13.10
2023-02-07T14:52:49.197Z,11.80
2023-02-07T14:58:42.859Z,11.02
2023-02-07T15:01:14.757Z,12.60
2023-02-07T15:03:41.878Z,13.85
2023-02-07T15:06:31.984Z,22.75
2023-02-07T15:09:01.063Z,20.10
2023-02-07T15:11:29.851Z,13.73
2023-02-07T15:14:00.621Z,12.52
2023-02-07T15:16:33.558Z,13.60
2023-02-07T15:19:40.023Z,15.15
2023-02-07T15:22:43.029Z,11.18
2023-02-07T15:25:25.068Z,11.25
2023-02-07T15:28:11.048Z,19.40
2023-02-07T15:31:17.587Z,15.73
2023-02-07T15:33:47.770Z,16.35
2023-02-07T15:36:44.042Z,14.93
2023-02-07T15:39:27.187Z,13.25
2023-02-07T15:41:56.367Z,14.10
2023-02-07T15:44:25.322Z,17.23
2023-02-07T15:47:13.037Z,15.50
2023-02-07T15:50:20.035Z,10.57
2023-02-07T15:53:03.360Z,14.30
2023-02-07T15:55:58.038Z,15.80
2023-02-07T15:58:40.103Z,18.33
2023-02-07T16:01:22.902Z,20.13
2023-02-07T16:03:52.024Z,23.33
2023-02-07T16:06:27.543Z,18.50
2023-02-07T16:09:19.676Z,17.90
2023-02-07T16:16:12.401Z,36.78
2023-02-07T16:22:40.607Z,25.40
2023-02-07T16:25:33.298Z,32.53
2023-02-07T16:34:59.263Z,9.60
2023-02-07T16:38:01.143Z,12.88
2023-02-07T16:40:41.882Z,23.45
2023-02-07T16:43:09.323Z,29.20
2023-02-07T16:45:39.132Z,61.35
2023-02-07T16:48:14.962Z,22.05
2023-02-07T16:50:42.203Z,14.98
2023-02-07T16:53:29.165Z,15.32
2023-02-07T16:56:42.253Z,22.38
2023-02-07T16:59:25.806Z,20.13
2023-02-07T17:01:54.288Z,25.33
2023-02-07T17:04:23.386Z,11.80
2023-02-07T17:06:52.471Z,21.35
2023-02-07T17:09:25.881Z,17.58
2023-02-07T17:11:53.724Z,16.60
2023-02-07T17:14:21.308Z,26.77
2023-02-07T17:16:48.635Z,13.70
2023-02-07T17:19:20.378Z,23.70
2023-02-07T17:21:47.695Z,27.83
2023-02-07T17:24:15.135Z,23.85
2023-02-07T17:27:06.125Z,29.27
2023-02-07T17:29:46.627Z,33.15
2023-02-07T17:32:13.996Z,29.23
2023-02-07T17:34:40.943Z,32.55
2023-02-07T17:37:42.083Z,30.00
2023-02-07T17:40:26.122Z,54.00
2023-02-07T17:42:53.229Z,43.28
2023-02-07T17:45:20.483Z,31.85
2023-02-07T17:47:47.881Z,28.33
2023-02-07T17:50:26.223Z,35.88
2023-02-07T17:52:53.422Z,34.00
2023-02-07T17:55:40.113Z,35.13
2023-02-07T17:58:34.097Z,29.63
2023-02-07T18:01:29.344Z,36.72
2023-02-07T18:04:09.788Z,57.55
2023-02-07T18:06:36.885Z,70.60
2023-02-07T18:09:34.122Z,32.55
2023-02-07T18:12:35.156Z,53.42
2023-02-07T18:15:18.983Z,37.03
2023-02-07T18:17:47.611Z,46.35
2023-02-07T18:20:22.352Z,35.63
2023-02-07T18:22:51.850Z,28.33
2023-02-07T18:25:20.815Z,32.35
2023-02-07T18:27:51.077Z,29.45
2023-02-07T18:30:20.000Z,32.90
2023-02-07T18:32:52.023Z,27.10
2023-02-07T18:35:39.139Z,32.13
2023-02-07T18:38:42.129Z,32.22
2023-02-07T18:41:26.585Z,27.08
2023-02-07T18:43:53.815Z,19.92
2023-02-07T18:46:41.145Z,27.13
2023-02-07T18:49:42.193Z,19.02
2023-02-07T18:52:37.066Z,16.55
2023-02-07T18:55:04.426Z,13.82
2023-02-07T18:57:52.102Z,21.42
2023-02-07T19:00:32.925Z,25.30
2023-02-07T19:03:00.039Z,20.25
2023-02-07T19:05:27.149Z,30.38
2023-02-07T19:07:55.593Z,23.33
2023-02-07T19:10:43.110Z,23.92
2023-02-07T19:13:46.358Z,23.10
2023-02-07T19:16:40.126Z,22.77
2023-02-07T19:19:07.434Z,24.50
2023-02-07T19:21:34.688Z,22.42
2023-02-07T19:24:27.180Z,24.83
2023-02-07T19:27:28.175Z,23.02
2023-02-07T19:30:09.438Z,29.20
2023-02-07T19:32:36.617Z,24.13
2023-02-07T19:35:24.192Z,41.08
2023-02-07T19:38:04.915Z,41.95
2023-02-07T19:40:32.319Z,42.83
2023-02-07T19:42:59.597Z,21.02
2023-02-07T19:45:27.198Z,26.60
2023-02-07T19:48:14.137Z,31.95
2023-02-07T19:51:03.728Z,33.85
2023-02-07T19:53:31.579Z,25.55
2023-02-07T19:56:21.167Z,25.15
2023-02-07T19:59:04.965Z,32.13
2023-02-07T20:01:52.263Z,39.22
2023-02-07T20:04:32.772Z,24.95
2023-02-07T20:07:00.295Z,24.80
2023-02-07T20:09:27.522Z,20.55
2023-02-07T20:11:55.146Z,34.20
2023-02-07T20:14:22.313Z,26.00
2023-02-07T20:17:09.180Z,26.90
2023-02-07T20:20:10.270Z,37.80
2023-02-07T20:23:11.180Z,30.60
2023-02-07T20:26:02.283Z,39.50
2023-02-07T20:28:43.423Z,43.85
2023-02-07T20:31:12.602Z,34.42
2023-02-07T20:33:41.292Z,35.35
2023-02-07T20:36:10.428Z,31.15
2023-02-07T20:38:38.247Z,38.05
2023-02-07T20:41:07.687Z,34.15
2023-02-07T20:43:34.973Z,26.50
2023-02-07T20:46:10.921Z,36.38
2023-02-07T20:48:58.241Z,26.25
2023-02-07T20:51:39.287Z,34.47
2023-02-07T20:54:26.182Z,25.98
2023-02-07T20:57:27.175Z,21.02
2023-02-07T21:00:08.973Z,29.08
2023-02-07T21:02:37.032Z,28.27
2023-02-07T21:05:04.169Z,27.35
2023-02-07T21:07:31.231Z,26.23
2023-02-07T21:09:58.327Z,42.03
2023-02-07T21:12:25.528Z,28.77
2023-02-07T21:14:52.654Z,30.60
2023-02-07T21:17:19.702Z,47.85
2023-02-07T21:19:46.694Z,48.83
2023-02-07T21:22:35.198Z,42.83
2023-02-07T21:25:36.224Z,42.88
2023-02-07T21:28:39.248Z,47.78
2023-02-07T21:31:41.265Z,61.53
2023-02-07T21:34:22.376Z,28.92
2023-02-07T21:36:52.712Z,30.20
2023-02-07T21:39:20.089Z,31.45
2023-02-07T21:41:48.080Z,37.50
2023-02-07T21:44:15.733Z,34.90
2023-02-07T21:46:46.316Z,33.00
2023-02-07T21:49:16.294Z,24.25
2023-02-07T21:51:46.812Z,36.83
2023-02-07T21:54:13.837Z,33.42
2023-02-07T21:57:03.250Z,29.77
2023-02-07T21:59:43.952Z,25.00
2023-02-07T22:02:31.214Z,37.67
2023-02-07T22:05:32.173Z,32.92
2023-02-07T22:08:12.790Z,39.53
2023-02-07T22:10:44.798Z,26.75
2023-02-07T22:13:12.973Z,26.30
2023-02-07T22:15:39.788Z,31.70
2023-02-07T22:18:06.845Z,33.25
2023-02-07T22:20:33.770Z,33.75
2023-02-07T22:23:21.198Z,33.03
2023-02-07T22:26:02.358Z,25.80
2023-02-07T22:28:29.516Z,27.85
2023-02-07T22:30:56.705Z,30.42
2023-02-07T22:33:23.784Z,36.97
2023-02-07T22:35:51.113Z,32.55
2023-02-07T22:38:38.210Z,34.25
2023-02-07T22:41:39.227Z,38.38
2023-02-07T22:44:40.215Z,34.47
2023-02-07T22:47:34.196Z,40.30
2023-02-07T22:50:14.706Z,33.92
2023-02-07T22:52:41.565Z,29.48
2023-02-07T22:55:28.248Z,35.60
2023-02-07T22:58:25.521Z,37.13
2023-02-07T23:00:52.359Z,55.33
2023-02-07T23:03:19.407Z,46.50
2023-02-07T23:05:46.228Z,42.78
2023-02-07T23:08:13.153Z,55.15
2023-02-07T23:10:41.406Z,49.80
2023-02-07T23:13:08.645Z,72.43
2023-02-07T23:15:36.428Z,55.38
2023-02-07T23:18:07.330Z,65.78
2023-02-07T23:20:34.465Z,76.45
2023-02-07T23:23:21.206Z,46.63
2023-02-07T23:26:01.836Z,51.80
2023-02-07T23:28:29.235Z,41.85
2023-02-07T23:31:17.330Z,46.47
2023-02-07T23:33:58.034Z,70.07
2023-02-07T23:36:25.149Z,57.63
2023-02-07T23:38:52.091Z,55.15
2023-02-07T23:41:39.227Z,52.15
2023-02-07T23:44:40.224Z,47.97
2023-02-07T23:47:20.965Z,34.38
2023-02-07T23:49:48.093Z,48.90
2023-02-07T23:52:16.790Z,41.47
2023-02-07T23:54:43.707Z,35.40
2023-02-07T23:57:30.207Z,38.42
